sensor_id;sensor_type;location;lat;lon;timestamp;pressure;altitude;pressure_sealevel;temperature;humidity
23172;BME280;11754;42.664;23.594;2023-02-28T00:00:46;95898.91;;;7.22;85.41
23172;BME280;11754;42.664;23.594;2023-02-28T00:03:12;95901.94;;;7.27;85.29
23172;BME280;11754;42.664;23.594;2023-02-28T00:05:37;95889.63;;;7.28;85.22
23172;BME280;11754;42.664;23.594;2023-02-28T00:08:03;95886.72;;;7.21;85.74
23172;BME280;11754;42.664;23.594;2023-02-28T00:10:30;95891.69;;;7.24;85.90
23172;BME280;11754;42.664;23.594;2023-02-28T00:13:00;95901.81;;;7.29;85.42
23172;BME280;11754;42.664;23.594;2023-02-28T00:15:26;95907.75;;;7.40;84.73
23172;BME280;11754;42.664;23.594;2023-02-28T00:17:52;95912.47;;;7.46;84.12
23172;BME280;11754;42.664;23.594;2023-02-28T00:20:18;95913.41;;;7.45;84.53
23172;BME280;11754;42.664;23.594;2023-02-28T00:22:46;95910.53;;;7.49;84.78
23172;BME280;11754;42.664;23.594;2023-02-28T00:25:14;95914.28;;;7.56;84.52
23172;BME280;11754;42.664;23.594;2023-02-28T00:27:40;95923.53;;;7.60;83.97
23172;BME280;11754;42.664;23.594;2023-02-28T00:30:09;95915.78;;;7.68;83.51
23172;BME280;11754;42.664;23.594;2023-02-28T00:32:35;95907.50;;;7.63;83.63
23172;BME280;11754;42.664;23.594;2023-02-28T00:35:03;95888.41;;;7.61;84.00
23172;BME280;11754;42.664;23.594;2023-02-28T00:37:29;95877.66;;;7.64;84.42
23172;BME280;11754;42.664;23.594;2023-02-28T00:39:54;95879.59;;;7.62;84.24
23172;BME280;11754;42.664;23.594;2023-02-28T00:42:20;95888.72;;;7.58;84.13
23172;BME280;11754;42.664;23.594;2023-02-28T00:44:45;95899.50;;;7.55;84.02
23172;BME280;11754;42.664;23.594;2023-02-28T00:47:11;95901.44;;;7.62;84.09
23172;BME280;11754;42.664;23.594;2023-02-28T00:49:36;95896.59;;;7.67;83.67
23172;BME280;11754;42.664;23.594;2023-02-28T00:52:02;95896.31;;;7.70;83.82
23172;BME280;11754;42.664;23.594;2023-02-28T00:54:27;95892.88;;;7.70;83.18
23172;BME280;11754;42.664;23.594;2023-02-28T00:56:53;95871.44;;;7.65;83.67
23172;BME280;11754;42.664;23.594;2023-02-28T00:59:18;95865.78;;;7.60;83.75
23172;BME280;11754;42.664;23.594;2023-02-28T01:01:46;95864.41;;;7.56;83.64
23172;BME280;11754;42.664;23.594;2023-02-28T01:04:11;95862.63;;;7.46;83.66
23172;BME280;11754;42.664;23.594;2023-02-28T01:06:37;95846.56;;;7.30;83.83
23172;BME280;11754;42.664;23.594;2023-02-28T01:09:04;95849.72;;;7.24;84.72
23172;BME280;11754;42.664;23.594;2023-02-28T01:11:30;95858.97;;;7.28;84.58
23172;BME280;11754;42.664;23.594;2023-02-28T01:13:56;95869.38;;;7.39;84.45
23172;BME280;11754;42.664;23.594;2023-02-28T01:16:22;95872.69;;;7.41;84.14
23172;BME280;11754;42.664;23.594;2023-02-28T01:18:48;95876.41;;;7.49;83.97
23172;BME280;11754;42.664;23.594;2023-02-28T01:21:15;95860.66;;;7.49;83.58
23172;BME280;11754;42.664;23.594;2023-02-28T01:23:41;95871.28;;;7.57;83.50
23172;BME280;11754;42.664;23.594;2023-02-28T01:26:09;95882.06;;;7.63;83.37
23172;BME280;11754;42.664;23.594;2023-02-28T01:28:35;95874.06;;;7.65;83.02
23172;BME280;11754;42.664;23.594;2023-02-28T01:31:01;95874.91;;;7.65;82.89
23172;BME280;11754;42.664;23.594;2023-02-28T01:33:26;95867.97;;;7.64;82.86
23172;BME280;11754;42.664;23.594;2023-02-28T01:35:59;95877.38;;;7.57;82.37
23172;BME280;11754;42.664;23.594;2023-02-28T01:38:25;95882.63;;;7.47;82.45
23172;BME280;11754;42.664;23.594;2023-02-28T01:40:51;95866.88;;;7.38;82.75
23172;BME280;11754;42.664;23.594;2023-02-28T01:43:27;95873.22;;;7.35;82.89
23172;BME280;11754;42.664;23.594;2023-02-28T01:45:54;95873.22;;;7.35;83.16
23172;BME280;11754;42.664;23.594;2023-02-28T01:48:28;95868.38;;;7.31;82.93
23172;BME280;11754;42.664;23.594;2023-02-28T01:50:59;95866.84;;;7.28;83.16
23172;BME280;11754;42.664;23.594;2023-02-28T01:53:32;95862.97;;;7.13;83.35
23172;BME280;11754;42.664;23.594;2023-02-28T01:55:59;95874.00;;;7.07;83.10
23172;BME280;11754;42.664;23.594;2023-02-28T01:58:25;95881.19;;;7.05;83.06
23172;BME280;11754;42.664;23.594;2023-02-28T02:00:51;95888.59;;;6.99;82.89
23172;BME280;11754;42.664;23.594;2023-02-28T02:03:19;95875.03;;;6.85;82.88
23172;BME280;11754;42.664;23.594;2023-02-28T02:05:45;95886.66;;;6.82;83.29
23172;BME280;11754;42.664;23.594;2023-02-28T02:08:16;95889.38;;;6.71;83.16
23172;BME280;11754;42.664;23.594;2023-02-28T02:15:55;95907.78;;;6.60;83.43
23172;BME280;11754;42.664;23.594;2023-02-28T02:18:50;95905.88;;;6.62;83.44
23172;BME280;11754;42.664;23.594;2023-02-28T02:29:48;95905.88;;;6.62;82.96
23172;BME280;11754;42.664;23.594;2023-02-28T02:37:42;95903.59;;;6.47;83.11
23172;BME280;11754;42.664;23.594;2023-02-28T02:40:28;95901.38;;;6.43;83.34
23172;BME280;11754;42.664;23.594;2023-02-28T02:43:02;95910.63;;;6.47;83.28
23172;BME280;11754;42.664;23.594;2023-02-28T02:45:34;95916.53;;;6.39;82.88
23172;BME280;11754;42.664;23.594;2023-02-28T02:48:05;95910.00;;;6.34;83.00
23172;BME280;11754;42.664;23.594;2023-02-28T02:50:36;95907.91;;;6.28;83.31
23172;BME280;11754;42.664;23.594;2023-02-28T02:53:05;95907.63;;;6.31;83.19
23172;BME280;11754;42.664;23.594;2023-02-28T02:55:34;95920.88;;;6.29;83.53
23172;BME280;11754;42.664;23.594;2023-02-28T02:58:04;95924.47;;;6.28;83.63
23172;BME280;11754;42.664;23.594;2023-02-28T03:00:39;95927.19;;;6.26;83.83
23172;BME280;11754;42.664;23.594;2023-02-28T03:03:08;95938.22;;;6.20;83.71
23172;BME280;11754;42.664;23.594;2023-02-28T03:05:49;95939.59;;;6.04;83.50
23172;BME280;11754;42.664;23.594;2023-02-28T03:08:15;95936.78;;;5.84;84.42
23172;BME280;11754;42.664;23.594;2023-02-28T03:10:46;95936.53;;;5.87;84.68
23172;BME280;11754;42.664;23.594;2023-02-28T03:13:20;95950.59;;;5.86;85.36
23172;BME280;11754;42.664;23.594;2023-02-28T03:21:27;95951.41;;;5.87;86.35
23172;BME280;11754;42.664;23.594;2023-02-28T03:24:04;95942.13;;;5.94;86.61
23172;BME280;11754;42.664;23.594;2023-02-28T03:26:33;95945.22;;;5.99;86.16
23172;BME280;11754;42.664;23.594;2023-02-28T03:29:02;95946.06;;;5.99;86.44
23172;BME280;11754;42.664;23.594;2023-02-28T03:31:48;95969.56;;;6.11;86.56
23172;BME280;11754;42.664;23.594;2023-02-28T03:34:22;95967.03;;;6.20;86.46
23172;BME280;11754;42.664;23.594;2023-02-28T03:36:54;95976.13;;;6.26;86.01
23172;BME280;11754;42.664;23.594;2023-02-28T03:39:28;95967.53;;;6.35;85.79
23172;BME280;11754;42.664;23.594;2023-02-28T03:42:02;95976.59;;;6.31;86.67
23172;BME280;11754;42.664;23.594;2023-02-28T03:50:43;95980.09;;;6.41;87.58
23172;BME280;11754;42.664;23.594;2023-02-28T03:53:22;95971.81;;;6.57;87.58
23172;BME280;11754;42.664;23.594;2023-02-28T03:55:54;95963.78;;;6.59;87.21
23172;BME280;11754;42.664;23.594;2023-02-28T03:58:55;95961.09;;;6.70;87.08
23172;BME280;11754;42.664;23.594;2023-02-28T04:01:27;95971.63;;;6.80;86.91
23172;BME280;11754;42.664;23.594;2023-02-28T04:03:53;95980.22;;;6.91;86.67
23172;BME280;11754;42.664;23.594;2023-02-28T04:06:21;95977.78;;;6.99;86.23
23172;BME280;11754;42.664;23.594;2023-02-28T04:08:47;95973.66;;;7.07;85.92
23172;BME280;11754;42.664;23.594;2023-02-28T04:11:28;95966.50;;;7.09;85.49
23172;BME280;11754;42.664;23.594;2023-02-28T04:13:55;95951.84;;;7.06;85.66
23172;BME280;11754;42.664;23.594;2023-02-28T04:16:20;95967.22;;;7.11;85.30
23172;BME280;11754;42.664;23.594;2023-02-28T04:18:46;95972.84;;;7.06;84.37
23172;BME280;11754;42.664;23.594;2023-02-28T04:21:12;95977.50;;;7.03;84.30
23172;BME280;11754;42.664;23.594;2023-02-28T04:23:37;95981.94;;;7.02;84.01
23172;BME280;11754;42.664;23.594;2023-02-28T04:26:03;95977.25;;;7.06;83.75
23172;BME280;11754;42.664;23.594;2023-02-28T04:28:29;95980.34;;;7.11;83.30
23172;BME280;11754;42.664;23.594;2023-02-28T04:31:00;95973.09;;;7.03;83.09
23172;BME280;11754;42.664;23.594;2023-02-28T04:33:26;95977.25;;;7.06;82.95
23172;BME280;11754;42.664;23.594;2023-02-28T04:36:03;95975.66;;;7.14;82.81
23172;BME280;11754;42.664;23.594;2023-02-28T04:38:38;95986.41;;;7.21;81.53
23172;BME280;11754;42.664;23.594;2023-02-28T04:41:04;95987.22;;;7.12;81.17
23172;BME280;11754;42.664;23.594;2023-02-28T04:43:30;95983.06;;;7.09;81.23
23172;BME280;11754;42.664;23.594;2023-02-28T04:45:57;95985.03;;;7.17;81.18
23172;BME280;11754;42.664;23.594;2023-02-28T04:48:24;95994.84;;;7.15;80.52
23172;BME280;11754;42.664;23.594;2023-02-28T04:50:51;95988.88;;;7.13;80.62
23172;BME280;11754;42.664;23.594;2023-02-28T04:53:16;95991.00;;;7.19;80.34
23172;BME280;11754;42.664;23.594;2023-02-28T04:55:42;95992.22;;;7.15;80.18
23172;BME280;11754;42.664;23.594;2023-02-28T04:58:07;95996.09;;;7.20;80.04
23172;BME280;11754;42.664;23.594;2023-02-28T05:00:33;95986.25;;;7.13;80.18
23172;BME280;11754;42.664;23.594;2023-02-28T05:02:58;95994.13;;;7.13;80.87
23172;BME280;11754;42.664;23.594;2023-02-28T05:05:24;95994.69;;;7.16;80.62
23172;BME280;11754;42.664;23.594;2023-02-28T05:07:49;95997.22;;;7.18;80.29
23172;BME280;11754;42.664;23.594;2023-02-28T05:10:15;95979.78;;;7.17;80.18
23172;BME280;11754;42.664;23.594;2023-02-28T05:12:40;95984.88;;;7.09;80.49
23172;BME280;11754;42.664;23.594;2023-02-28T05:15:06;95995.53;;;7.17;81.00
23172;BME280;11754;42.664;23.594;2023-02-28T05:17:31;96001.22;;;7.22;80.60
23172;BME280;11754;42.664;23.594;2023-02-28T05:19:57;95994.28;;;7.21;81.07
23172;BME280;11754;42.664;23.594;2023-02-28T05:22:22;96003.84;;;7.32;81.07
23172;BME280;11754;42.664;23.594;2023-02-28T05:24:48;96000.84;;;7.36;81.11
23172;BME280;11754;42.664;23.594;2023-02-28T05:27:13;96008.88;;;7.44;80.88
23172;BME280;11754;42.664;23.594;2023-02-28T05:29:38;96000.59;;;7.49;80.83
23172;BME280;11754;42.664;23.594;2023-02-28T05:32:11;96010.31;;;7.68;80.34
23172;BME280;11754;42.664;23.594;2023-02-28T05:34:37;96014.16;;;7.64;80.32
23172;BME280;11754;42.664;23.594;2023-02-28T05:37:04;96021.09;;;7.75;79.84
23172;BME280;11754;42.664;23.594;2023-02-28T05:39:29;96018.09;;;7.79;79.49
23172;BME280;11754;42.664;23.594;2023-02-28T05:41:54;96030.28;;;7.90;79.72
23172;BME280;11754;42.664;23.594;2023-02-28T05:44:20;96026.69;;;7.91;79.32
23172;BME280;11754;42.664;23.594;2023-02-28T05:46:45;96027.25;;;8.04;78.88
23172;BME280;11754;42.664;23.594;2023-02-28T05:49:11;96029.47;;;8.09;78.74
23172;BME280;11754;42.664;23.594;2023-02-28T05:51:36;96039.69;;;8.22;78.35
23172;BME280;11754;42.664;23.594;2023-02-28T05:54:05;96039.13;;;8.18;78.66
23172;BME280;11754;42.664;23.594;2023-02-28T05:56:31;96034.03;;;8.26;78.43
23172;BME280;11754;42.664;23.594;2023-02-28T05:58:56;96032.50;;;8.33;78.17
23172;BME280;11754;42.664;23.594;2023-02-28T06:01:37;96037.22;;;8.39;78.03
23172;BME280;11754;42.664;23.594;2023-02-28T06:04:05;96035.44;;;8.50;77.82
23172;BME280;11754;42.664;23.594;2023-02-28T06:06:30;96033.34;;;8.63;77.11
23172;BME280;11754;42.664;23.594;2023-02-28T06:08:57;96045.25;;;8.67;77.16
23172;BME280;11754;42.664;23.594;2023-02-28T06:11:22;96043.16;;;8.71;76.98
23172;BME280;11754;42.664;23.594;2023-02-28T06:13:59;96046.06;;;8.68;76.92
23172;BME280;11754;42.664;23.594;2023-02-28T06:16:26;96050.06;;;8.72;76.47
23172;BME280;11754;42.664;23.594;2023-02-28T06:18:52;96049.09;;;8.73;76.46
23172;BME280;11754;42.664;23.594;2023-02-28T06:21:26;96053.53;;;8.82;75.67
23172;BME280;11754;42.664;23.594;2023-02-28T06:23:55;96052.13;;;8.87;76.21
23172;BME280;11754;42.664;23.594;2023-02-28T06:26:21;96051.84;;;8.90;75.73
23172;BME280;11754;42.664;23.594;2023-02-28T06:28:47;96046.16;;;8.95;76.01
23172;BME280;11754;42.664;23.594;2023-02-28T06:31:15;96050.16;;;8.99;76.21
23172;BME280;11754;42.664;23.594;2023-02-28T06:33:41;96056.50;;;9.16;75.84
23172;BME280;11754;42.664;23.594;2023-02-28T06:36:08;96059.69;;;9.20;75.73
23172;BME280;11754;42.664;23.594;2023-02-28T06:38:35;96062.00;;;9.23;75.79
23172;BME280;11754;42.664;23.594;2023-02-28T06:41:01;96063.69;;;9.24;75.87
23172;BME280;11754;42.664;23.594;2023-02-28T06:43:32;96049.81;;;9.22;75.67
23172;BME280;11754;42.664;23.594;2023-02-28T06:46:00;96065.88;;;9.28;75.88
23172;BME280;11754;42.664;23.594;2023-02-28T06:48:26;96058.97;;;9.27;76.03
23172;BME280;11754;42.664;23.594;2023-02-28T06:50:52;96056.16;;;9.38;75.92
23172;BME280;11754;42.664;23.594;2023-02-28T06:53:25;96049.50;;;9.34;75.83
23172;BME280;11754;42.664;23.594;2023-02-28T06:55:51;96069.94;;;9.50;75.95
23172;BME280;11754;42.664;23.594;2023-02-28T06:58:16;96069.91;;;9.60;75.81
23172;BME280;11754;42.664;23.594;2023-02-28T07:00:45;96059.97;;;9.54;76.17
23172;BME280;11754;42.664;23.594;2023-02-28T07:03:11;96058.59;;;9.50;76.78
23172;BME280;11754;42.664;23.594;2023-02-28T07:05:38;96058.03;;;9.56;76.94
23172;BME280;11754;42.664;23.594;2023-02-28T07:08:05;96058.06;;;9.46;77.05
23172;BME280;11754;42.664;23.594;2023-02-28T07:10:31;96054.31;;;9.49;77.71
23172;BME280;11754;42.664;23.594;2023-02-28T07:12:58;96061.22;;;9.50;77.71
23172;BME280;11754;42.664;23.594;2023-02-28T07:15:23;96062.69;;;9.62;77.74
23172;BME280;11754;42.664;23.594;2023-02-28T07:17:49;96065.72;;;9.67;77.91
23172;BME280;11754;42.664;23.594;2023-02-28T07:20:14;96059.31;;;9.70;78.12
23172;BME280;11754;42.664;23.594;2023-02-28T07:22:40;96055.75;;;9.61;78.42
23172;BME280;11754;42.664;23.594;2023-02-28T07:25:07;96061.31;;;9.58;79.08
23172;BME280;11754;42.664;23.594;2023-02-28T07:27:32;96056.84;;;9.68;78.90
23172;BME280;11754;42.664;23.594;2023-02-28T07:29:59;96063.47;;;9.72;79.01
23172;BME280;11754;42.664;23.594;2023-02-28T07:32:27;96065.44;;;9.70;79.87
23172;BME280;11754;42.664;23.594;2023-02-28T07:34:53;96063.91;;;9.68;79.74
23172;BME280;11754;42.664;23.594;2023-02-28T07:37:18;96071.78;;;9.77;79.25
23172;BME280;11754;42.664;23.594;2023-02-28T07:39:44;96059.31;;;9.70;79.56
23172;BME280;11754;42.664;23.594;2023-02-28T07:42:09;96066.09;;;9.72;80.10
23172;BME280;11754;42.664;23.594;2023-02-28T07:44:37;96066.69;;;9.66;80.72
23172;BME280;11754;42.664;23.594;2023-02-28T07:47:07;96063.91;;;9.68;81.43
23172;BME280;11754;42.664;23.594;2023-02-28T07:49:34;96064.25;;;9.82;81.07
23172;BME280;11754;42.664;23.594;2023-02-28T07:51:59;96054.78;;;9.90;81.17
23172;BME280;11754;42.664;23.594;2023-02-28T07:54:25;96075.91;;;10.07;80.54
23172;BME280;11754;42.664;23.594;2023-02-28T07:56:50;96064.31;;;10.18;80.62
23172;BME280;11754;42.664;23.594;2023-02-28T07:59:15;96059.25;;;10.07;80.96
23172;BME280;11754;42.664;23.594;2023-02-28T08:01:40;96060.22;;;10.06;81.37
23172;BME280;11754;42.664;23.594;2023-02-28T08:04:06;96064.41;;;9.99;81.51
23172;BME280;11754;42.664;23.594;2023-02-28T08:06:31;96056.66;;;9.97;82.13
23172;BME280;11754;42.664;23.594;2023-02-28T08:08:57;96053.00;;;10.08;81.71
23172;BME280;11754;42.664;23.594;2023-02-28T08:11:22;96057.97;;;10.11;81.43
23172;BME280;11754;42.664;23.594;2023-02-28T08:13:48;96071.22;;;10.19;81.80
23172;BME280;11754;42.664;23.594;2023-02-28T08:16:14;96067.63;;;10.20;81.58
23172;BME280;11754;42.664;23.594;2023-02-28T08:18:47;96075.03;;;10.34;81.38
23172;BME280;11754;42.664;23.594;2023-02-28T08:21:12;96069.56;;;10.46;81.43
23172;BME280;11754;42.664;23.594;2023-02-28T08:23:38;96062.09;;;10.59;80.38
23172;BME280;11754;42.664;23.594;2023-02-28T08:26:04;96066.97;;;10.72;80.21
23172;BME280;11754;42.664;23.594;2023-02-28T08:28:30;96057.47;;;10.79;79.28
23172;BME280;11754;42.664;23.594;2023-02-28T08:30:55;96070.94;;;10.94;78.34
23172;BME280;11754;42.664;23.594;2023-02-28T08:33:21;96062.78;;;11.05;77.93
23172;BME280;11754;42.664;23.594;2023-02-28T08:35:48;96062.78;;;11.05;77.69
23172;BME280;11754;42.664;23.594;2023-02-28T08:38:13;96062.50;;;11.16;77.07
23172;BME280;11754;42.664;23.594;2023-02-28T08:40:38;96070.47;;;11.24;76.65
23172;BME280;11754;42.664;23.594;2023-02-28T08:43:04;96063.44;;;11.33;75.82
23172;BME280;11754;42.664;23.594;2023-02-28T08:45:29;96078.47;;;11.33;74.85
23172;BME280;11754;42.664;23.594;2023-02-28T08:47:55;96078.50;;;11.41;74.63
23172;BME280;11754;42.664;23.594;2023-02-28T08:50:21;96073.19;;;11.33;74.15
23172;BME280;11754;42.664;23.594;2023-02-28T08:52:47;96066.19;;;11.23;74.56
23172;BME280;11754;42.664;23.594;2023-02-28T08:55:12;96061.00;;;11.40;73.89
23172;BME280;11754;42.664;23.594;2023-02-28T08:57:38;96067.00;;;11.50;73.44
23172;BME280;11754;42.664;23.594;2023-02-28T09:00:03;96071.44;;;11.49;73.40
23172;BME280;11754;42.664;23.594;2023-02-28T09:02:30;96074.56;;;11.45;73.36
23172;BME280;11754;42.664;23.594;2023-02-28T09:04:56;96074.16;;;11.58;73.29
23172;BME280;11754;42.664;23.594;2023-02-28T09:07:22;96062.88;;;11.47;73.51
23172;BME280;11754;42.664;23.594;2023-02-28T09:09:48;96072.28;;;11.50;73.92
23172;BME280;11754;42.664;23.594;2023-02-28T09:12:21;96073.13;;;11.50;73.25
23172;BME280;11754;42.664;23.594;2023-02-28T09:14:46;96063.75;;;11.64;73.11
23172;BME280;11754;42.664;23.594;2023-02-28T09:17:12;96066.75;;;11.69;72.58
23172;BME280;11754;42.664;23.594;2023-02-28T09:19:37;96062.63;;;11.67;71.89
23172;BME280;11754;42.664;23.594;2023-02-28T09:22:02;96060.75;;;11.51;72.26
23172;BME280;11754;42.664;23.594;2023-02-28T09:24:28;96063.69;;;11.48;72.35
23172;BME280;11754;42.664;23.594;2023-02-28T09:26:53;96075.31;;;11.63;72.40
23172;BME280;11754;42.664;23.594;2023-02-28T09:29:19;96076.88;;;11.40;73.11
23172;BME280;11754;42.664;23.594;2023-02-28T09:31:44;96071.25;;;11.43;72.64
23172;BME280;11754;42.664;23.594;2023-02-28T09:34:10;96075.50;;;11.36;73.11
23172;BME280;11754;42.664;23.594;2023-02-28T09:36:35;96072.59;;;11.47;72.34
23172;BME280;11754;42.664;23.594;2023-02-28T09:39:04;96071.25;;;11.43;71.89
23172;BME280;11754;42.664;23.594;2023-02-28T09:41:38;96077.06;;;11.20;72.98
23172;BME280;11754;42.664;23.594;2023-02-28T09:44:18;96084.94;;;11.12;73.27
23172;BME280;11754;42.664;23.594;2023-02-28T09:46:48;96085.22;;;11.09;73.48
23172;BME280;11754;42.664;23.594;2023-02-28T09:49:23;96073.53;;;11.12;73.51
23172;BME280;11754;42.664;23.594;2023-02-28T09:51:58;96078.00;;;11.11;74.46
23172;BME280;11754;42.664;23.594;2023-02-28T09:54:28;96074.06;;;11.15;74.26
23172;BME280;11754;42.664;23.594;2023-02-28T09:57:36;96069.50;;;11.25;74.49
23172;BME280;11754;42.664;23.594;2023-02-28T10:00:22;96061.78;;;11.32;74.05
23172;BME280;11754;42.664;23.594;2023-02-28T10:05:26;96056.41;;;11.50;73.17
23172;BME280;11754;42.664;23.594;2023-02-28T10:08:17;96055.72;;;11.40;73.80
23172;BME280;11754;42.664;23.594;2023-02-28T10:11:07;96051.41;;;11.39;74.57
23172;BME280;11754;42.664;23.594;2023-02-28T10:18:52;96043.31;;;11.74;73.38
23172;BME280;11754;42.664;23.594;2023-02-28T10:21:26;96048.59;;;11.74;72.46
23172;BME280;11754;42.664;23.594;2023-02-28T10:23:59;96044.81;;;11.69;72.51
23172;BME280;11754;42.664;23.594;2023-02-28T10:26:28;96040.09;;;11.89;71.71
23172;BME280;11754;42.664;23.594;2023-02-28T10:28:55;96036.16;;;11.93;71.74
23172;BME280;11754;42.664;23.594;2023-02-28T10:31:21;96034.81;;;11.89;72.00
23172;BME280;11754;42.664;23.594;2023-02-28T10:33:48;96038.06;;;11.83;72.78
23172;BME280;11754;42.664;23.594;2023-02-28T10:36:17;96041.69;;;11.73;72.45
23172;BME280;11754;42.664;23.594;2023-02-28T10:38:44;96037.00;;;11.59;72.89
23172;BME280;11754;42.664;23.594;2023-02-28T10:41:13;96028.00;;;11.44;73.72
23172;BME280;11754;42.664;23.594;2023-02-28T10:43:40;96027.34;;;11.42;74.26
23172;BME280;11754;42.664;23.594;2023-02-28T10:48:40;96024.69;;;11.42;73.60
23172;BME280;11754;42.664;23.594;2023-02-28T10:51:15;96016.84;;;11.58;73.36
23172;BME280;11754;42.664;23.594;2023-02-28T10:53:55;96010.44;;;11.69;72.78
23172;BME280;11754;42.664;23.594;2023-02-28T10:56:21;96013.44;;;11.82;71.88
23172;BME280;11754;42.664;23.594;2023-02-28T11:03:53;95989.78;;;12.56;68.97
23172;BME280;11754;42.664;23.594;2023-02-28T11:06:22;95997.56;;;12.41;69.17
23172;BME280;11754;42.664;23.594;2023-02-28T11:08:59;95996.22;;;12.37;69.54
23172;BME280;11754;42.664;23.594;2023-02-28T11:11:28;95984.50;;;12.56;68.81
23172;BME280;11754;42.664;23.594;2023-02-28T11:14:03;95996.56;;;12.74;67.90
23172;BME280;11754;42.664;23.594;2023-02-28T11:16:37;95986.59;;;13.09;67.40
23172;BME280;11754;42.664;23.594;2023-02-28T11:19:04;95993.66;;;13.33;65.03
23172;BME280;11754;42.664;23.594;2023-02-28T11:21:36;95988.56;;;13.24;65.23
23172;BME280;11754;42.664;23.594;2023-02-28T11:24:27;95975.56;;;13.45;65.67
23172;BME280;11754;42.664;23.594;2023-02-28T11:26:53;95973.84;;;13.60;64.96
23172;BME280;11754;42.664;23.594;2023-02-28T11:29:25;95980.22;;;13.43;64.36
23172;BME280;11754;42.664;23.594;2023-02-28T11:32:18;95975.38;;;12.58;67.50
23172;BME280;11754;42.664;23.594;2023-02-28T11:34:45;95969.13;;;12.43;68.15
23172;BME280;11754;42.664;23.594;2023-02-28T11:37:16;95972.75;;;12.58;68.00
23172;BME280;11754;42.664;23.594;2023-02-28T11:39:44;95974.38;;;12.75;67.34
23172;BME280;11754;42.664;23.594;2023-02-28T11:48:27;95956.03;;;14.54;62.25
23172;BME280;11754;42.664;23.594;2023-02-28T11:56:36;95977.75;;;14.04;61.82
23172;BME280;11754;42.664;23.594;2023-02-28T12:04:47;95954.59;;;13.35;63.61
23172;BME280;11754;42.664;23.594;2023-02-28T12:12:56;95961.56;;;13.67;63.03
23172;BME280;11754;42.664;23.594;2023-02-28T12:15:38;95948.63;;;13.33;63.55
23172;BME280;11754;42.664;23.594;2023-02-28T12:28:52;95959.63;;;13.84;62.00
23172;BME280;11754;42.664;23.594;2023-02-28T12:31:23;95941.88;;;14.39;60.00
23172;BME280;11754;42.664;23.594;2023-02-28T12:33:54;95925.72;;;15.01;57.92
23172;BME280;11754;42.664;23.594;2023-02-28T12:36:22;95938.78;;;15.32;56.64
23172;BME280;11754;42.664;23.594;2023-02-28T12:41:54;95944.91;;;16.14;53.37
23172;BME280;11754;42.664;23.594;2023-02-28T12:44:28;95933.66;;;18.07;49.58
23172;BME280;11754;42.664;23.594;2023-02-28T12:46:59;95913.22;;;18.54;46.04
23172;BME280;11754;42.664;23.594;2023-02-28T12:49:49;95918.91;;;18.24;47.25
23172;BME280;11754;42.664;23.594;2023-02-28T12:52:30;95915.63;;;18.22;48.09
23172;BME280;11754;42.664;23.594;2023-02-28T12:55:07;95933.16;;;18.71;45.82
23172;BME280;11754;42.664;23.594;2023-02-28T13:00:17;95906.88;;;19.53;43.92
23172;BME280;11754;42.664;23.594;2023-02-28T13:03:10;95911.03;;;19.49;43.36
23172;BME280;11754;42.664;23.594;2023-02-28T13:11:39;95915.56;;;17.89;48.16
23172;BME280;11754;42.664;23.594;2023-02-28T13:14:18;95897.38;;;18.25;46.30
23172;BME280;11754;42.664;23.594;2023-02-28T13:19:17;95908.56;;;17.88;47.11
23172;BME280;11754;42.664;23.594;2023-02-28T13:21:45;95899.34;;;16.51;49.77
23172;BME280;11754;42.664;23.594;2023-02-28T13:24:11;95908.13;;;15.30;53.59
23172;BME280;11754;42.664;23.594;2023-02-28T13:29:28;95914.53;;;13.61;59.67
23172;BME280;11754;42.664;23.594;2023-02-28T13:34:39;95919.84;;;12.42;64.22
23172;BME280;11754;42.664;23.594;2023-02-28T13:47:41;95926.13;;;11.33;69.79
23172;BME280;11754;42.664;23.594;2023-02-28T14:01:35;95913.22;;;11.89;69.43
23172;BME280;11754;42.664;23.594;2023-02-28T14:06:29;95911.69;;;11.78;69.14
23172;BME280;11754;42.664;23.594;2023-02-28T14:09:03;95914.66;;;11.67;69.59
23172;BME280;11754;42.664;23.594;2023-02-28T14:11:35;95910.47;;;11.48;70.39
23172;BME280;11754;42.664;23.594;2023-02-28T14:14:03;95928.75;;;11.33;71.07
23172;BME280;11754;42.664;23.594;2023-02-28T14:27:43;95926.56;;;11.20;71.51
23172;BME280;11754;42.664;23.594;2023-02-28T14:36:26;95922.34;;;11.01;72.33
23172;BME280;11754;42.664;23.594;2023-02-28T14:38:57;95929.03;;;10.88;73.11
23172;BME280;11754;42.664;23.594;2023-02-28T14:41:37;95939.28;;;10.91;72.87
23172;BME280;11754;42.664;23.594;2023-02-28T14:44:33;95939.09;;;10.84;73.02
23172;BME280;11754;42.664;23.594;2023-02-28T14:47:02;95935.44;;;10.85;72.70
23172;BME280;11754;42.664;23.594;2023-02-28T14:49:34;95933.59;;;10.77;73.42
23172;BME280;11754;42.664;23.594;2023-02-28T14:54:29;95921.69;;;10.73;73.78
23172;BME280;11754;42.664;23.594;2023-02-28T14:56:54;95935.28;;;10.78;73.78
23172;BME280;11754;42.664;23.594;2023-02-28T14:59:29;95939.69;;;10.78;74.06
23172;BME280;11754;42.664;23.594;2023-02-28T15:02:18;95938.66;;;10.71;74.28
23172;BME280;11754;42.664;23.594;2023-02-28T15:07:38;95935.50;;;10.67;73.87
23172;BME280;11754;42.664;23.594;2023-02-28T15:10:27;95937.44;;;10.57;73.22
23172;BME280;11754;42.664;23.594;2023-02-28T15:12:58;95940.00;;;10.49;73.76
23172;BME280;11754;42.664;23.594;2023-02-28T15:16:03;95933.38;;;10.45;73.04
23172;BME280;11754;42.664;23.594;2023-02-28T15:18:43;95934.03;;;10.39;73.46
23172;BME280;11754;42.664;23.594;2023-02-28T15:21:22;95933.50;;;10.35;73.61
23172;BME280;11754;42.664;23.594;2023-02-28T15:23:59;95937.09;;;10.34;73.48
23172;BME280;11754;42.664;23.594;2023-02-28T15:26:32;95938.31;;;10.22;73.09
23172;BME280;11754;42.664;23.594;2023-02-28T15:29:02;95941.41;;;10.17;73.27
23172;BME280;11754;42.664;23.594;2023-02-28T15:31:33;95950.28;;;10.16;73.31
23172;BME280;11754;42.664;23.594;2023-02-28T15:34:04;95951.09;;;10.17;73.49